Time;durP1;ratioP1;P1;durP2;ratioP2;P2;SDS_P1;SDS_P2;PMS_P1;PMS_P2;Temp;Humidity;BMP_temperature;BMP_pressure;BME280_temperature;BME280_humidity;BME280_pressure;Samples;Min_cycle;Max_cycle;Signal;HPM_P1;HPM_P2
2022/03/14 04:00:31;;;;;;;66.40;60.90;;;5.80;99.90;;;;;;5954477;23;20390;31
2022/03/14 04:02:58;;;;;;;39.33;35.70;;;5.80;99.90;;;;;;4877939;29;20237;-75
2022/03/14 04:05:25;;;;;;;37.93;34.57;;;5.70;99.90;;;;;;4867277;29;20217;-74
2022/03/14 04:07:53;;;;;;;35.20;31.80;;;5.70;99.90;;;;;;4861915;29;20680;-74
2022/03/14 04:10:19;;;;;;;32.67;29.23;;;5.60;99.90;;;;;;4876853;29;20828;-73
2022/03/14 04:12:45;;;;;;;30.97;27.77;;;5.70;99.90;;;;;;4887851;29;20188;-73
2022/03/14 04:15:12;;;;;;;32.07;26.87;;;5.80;99.90;;;;;;4924825;23;20238;-76
2022/03/14 04:17:39;;;;;;;32.30;24.83;;;5.80;99.90;;;;;;4935828;29;20189;-77
2022/03/14 04:20:10;;;;;;;32.67;28.53;;;5.80;99.90;;;;;;4934392;29;20179;-77
2022/03/14 04:22:40;;;;;;;33.20;29.23;;;5.70;99.90;;;;;;4935095;29;20234;-77
2022/03/14 04:25:07;;;;;;;32.27;28.83;;;5.70;99.90;;;;;;4934623;29;20225;-77
2022/03/14 04:27:33;;;;;;;32.60;29.17;;;5.70;99.90;;;;;;4935534;29;20612;-76
2022/03/14 04:29:59;;;;;;;33.07;29.73;;;5.70;99.90;;;;;;4934629;29;20214;-76
2022/03/14 04:32:26;;;;;;;35.60;31.73;;;5.80;99.90;;;;;;4928655;29;20179;-77
2022/03/14 04:34:52;;;;;;;39.40;35.40;;;5.80;99.90;;;;;;4915166;29;20273;-76
2022/03/14 04:37:19;;;;;;;46.70;36.00;;;5.80;99.90;;;;;;4916287;29;20552;-77
2022/03/14 04:39:46;;;;;;;38.87;35.07;;;5.80;99.90;;;;;;4918209;29;20187;-76
2022/03/14 04:42:11;;;;;;;33.10;29.33;;;5.80;99.90;;;;;;4915561;29;20206;-77
2022/03/14 04:44:37;;;;;;;31.93;26.20;;;5.80;99.90;;;;;;4914222;29;20937;-77
2022/03/14 04:47:03;;;;;;;31.40;24.00;;;5.90;99.90;;;;;;4917043;29;20175;-77
2022/03/14 04:49:30;;;;;;;38.97;26.80;;;6.00;99.90;;;;;;4917293;29;20187;-77
2022/03/14 04:51:56;;;;;;;32.23;25.17;;;6.00;99.90;;;;;;4917227;29;20179;-77
2022/03/14 04:54:22;;;;;;;32.73;25.63;;;6.10;99.90;;;;;;4898145;29;20562;-77
2022/03/14 04:56:49;;;;;;;32.40;23.60;;;6.10;99.90;;;;;;4898154;29;20180;-77
2022/03/14 04:59:15;;;;;;;36.83;26.10;;;6.00;99.90;;;;;;4896470;29;20219;-77
2022/03/14 05:01:41;;;;;;;39.20;26.63;;;6.10;99.90;;;;;;4911389;29;20180;-76
2022/03/14 05:04:07;;;;;;;43.17;30.30;;;6.10;99.90;;;;;;4913667;29;20294;-77
2022/03/14 05:06:33;;;;;;;33.07;25.10;;;6.20;99.90;;;;;;4934974;29;20306;-76
2022/03/14 05:09:00;;;;;;;34.97;25.23;;;6.20;99.90;;;;;;4921416;29;20202;-76
2022/03/14 05:11:26;;;;;;;33.20;24.60;;;6.30;99.90;;;;;;4918077;29;20210;-77
2022/03/14 05:13:52;;;;;;;31.27;25.63;;;6.20;99.90;;;;;;4916874;29;20187;-76
2022/03/14 05:16:19;;;;;;;39.23;31.47;;;6.20;99.90;;;;;;4916866;29;20273;-76
2022/03/14 05:18:45;;;;;;;37.73;31.97;;;6.30;99.90;;;;;;4915019;29;20273;-77
2022/03/14 05:21:11;;;;;;;34.87;30.00;;;6.30;99.90;;;;;;4918532;29;20735;-78
2022/03/14 05:23:37;;;;;;;35.30;28.73;;;6.30;99.90;;;;;;4920253;29;20262;-79
2022/03/14 05:26:04;;;;;;;40.40;31.07;;;6.40;99.90;;;;;;4921827;29;20295;-79
2022/03/14 05:28:30;;;;;;;39.83;33.23;;;6.50;99.90;;;;;;4919446;29;20207;-80
2022/03/14 05:30:56;;;;;;;42.33;37.97;;;6.60;99.90;;;;;;4921148;29;20179;-78
2022/03/14 05:33:22;;;;;;;32.93;29.30;;;6.60;99.90;;;;;;4904170;29;20188;-78
2022/03/14 05:35:48;;;;;;;38.77;31.97;;;6.60;99.90;;;;;;4906287;29;20235;-77
2022/03/14 05:38:14;;;;;;;38.40;32.27;;;6.70;99.90;;;;;;4898114;29;20607;-76
2022/03/14 05:40:40;;;;;;;31.27;27.67;;;6.70;99.90;;;;;;4895091;29;20235;-77
2022/03/14 05:43:07;;;;;;;34.67;26.43;;;6.70;99.90;;;;;;4910865;29;20195;-77
2022/03/14 05:45:33;;;;;;;30.20;25.03;;;6.70;99.90;;;;;;4914839;29;20226;-78
2022/03/14 05:47:59;;;;;;;31.43;27.50;;;6.70;99.90;;;;;;4915905;29;20190;-77
2022/03/14 05:50:25;;;;;;;31.37;24.40;;;6.70;99.90;;;;;;4915364;29;20187;-78
2022/03/14 05:52:51;;;;;;;34.17;27.23;;;6.80;99.90;;;;;;4903985;29;20232;-78
2022/03/14 05:55:17;;;;;;;32.60;28.27;;;6.80;99.90;;;;;;4904937;29;20215;-77
2022/03/14 05:57:44;;;;;;;30.57;25.00;;;6.80;99.90;;;;;;4900947;29;20242;-77
2022/03/14 06:00:12;;;;;;;35.60;28.37;;;6.80;99.90;;;;;;4897028;29;20660;-77
2022/03/14 06:02:38;;;;;;;41.67;28.73;;;6.80;99.90;;;;;;4909805;29;20202;-77
2022/03/14 06:05:05;;;;;;;35.30;28.23;;;6.80;99.90;;;;;;4915253;29;20234;-76
2022/03/14 06:07:31;;;;;;;36.80;30.57;;;6.90;99.90;;;;;;4913951;29;20216;-77
2022/03/14 06:09:57;;;;;;;35.40;31.43;;;6.90;99.90;;;;;;4915313;29;20187;-77
2022/03/14 06:12:30;;;;;;;35.70;31.80;;;6.90;99.90;;;;;;4914534;29;20182;-77
2022/03/14 06:14:57;;;;;;;34.40;26.90;;;6.90;99.90;;;;;;4894068;29;20685;-76
2022/03/14 06:17:23;;;;;;;35.87;30.27;;;7.00;99.90;;;;;;4893755;29;20187;-77
2022/03/14 06:19:50;;;;;;;33.07;29.73;;;7.10;99.90;;;;;;4896274;29;20538;-76
2022/03/14 06:22:17;;;;;;;33.10;29.70;;;7.10;99.90;;;;;;4902048;29;20194;-78
2022/03/14 06:24:47;;;;;;;36.27;31.53;;;7.10;99.90;;;;;;4915463;29;20261;-77
2022/03/14 06:27:21;;;;;;;37.83;33.07;;;7.20;99.90;;;;;;4914180;29;20189;-78
2022/03/14 06:29:47;;;;;;;42.60;31.13;;;7.20;99.90;;;;;;4914103;29;20560;-77
2022/03/14 06:32:13;;;;;;;31.43;27.23;;;7.30;99.90;;;;;;4907333;29;20708;-77
2022/03/14 06:34:40;;;;;;;32.53;27.77;;;7.30;99.90;;;;;;4895232;29;20657;-77
2022/03/14 06:37:07;;;;;;;32.03;25.03;;;7.40;99.90;;;;;;4898850;29;20195;-77
2022/03/14 06:39:37;;;;;;;27.83;24.80;;;7.40;99.90;;;;;;4913681;29;20194;-77
2022/03/14 06:42:09;;;;;;;29.20;26.17;;;7.40;99.90;;;;;;4914275;29;20190;-77
2022/03/14 06:44:39;;;;;;;33.63;30.87;;;7.50;99.90;;;;;;4915112;29;20211;-77
2022/03/14 06:47:09;;;;;;;33.40;30.90;;;7.50;99.90;;;;;;4915389;29;20187;-77
2022/03/14 06:49:36;;;;;;;25.17;23.10;;;7.60;99.90;;;;;;4934017;29;20188;-77
2022/03/14 06:52:03;;;;;;;21.17;19.73;;;7.60;99.90;;;;;;4905618;29;20216;-77
2022/03/14 06:54:28;;;;;;;16.20;15.07;;;7.60;99.90;;;;;;4916711;29;20226;-78
2022/03/14 06:56:54;;;;;;;14.17;13.07;;;7.70;99.90;;;;;;4918846;29;20231;-77
2022/03/14 06:59:20;;;;;;;13.50;12.30;;;7.80;99.90;;;;;;4923441;29;20335;-77
2022/03/14 07:01:46;;;;;;;31.40;29.50;;;7.90;99.90;;;;;;4934712;29;20190;-77
2022/03/14 07:04:12;;;;;;;35.97;33.77;;;8.20;99.90;;;;;;4900906;29;20214;-77
2022/03/14 07:06:37;;;;;;;12.57;11.83;;;8.80;99.90;;;;;;4899759;29;20211;-77
2022/03/14 07:09:04;;;;;;;20.67;19.57;;;9.00;99.90;;;;;;4899289;29;20668;-77
2022/03/14 07:11:31;;;;;;;22.23;20.83;;;9.10;99.90;;;;;;4908678;29;20194;-76
2022/03/14 07:13:57;;;;;;;32.83;31.07;;;9.30;99.90;;;;;;4916853;29;20191;-77
2022/03/14 07:16:22;;;;;;;47.27;44.73;;;9.60;99.90;;;;;;4918277;29;20214;-77
2022/03/14 07:18:48;;;;;;;13.27;12.40;;;10.00;99.90;;;;;;4906094;29;20195;-76
2022/03/14 07:21:14;;;;;;;10.63;9.93;;;10.50;99.90;;;;;;4898812;29;20735;-76
2022/03/14 07:23:40;;;;;;;9.90;9.30;;;11.00;99.90;;;;;;4912565;29;20182;-76
2022/03/14 07:26:06;;;;;;;8.37;7.80;;;11.40;99.90;;;;;;4917995;29;20711;-75
2022/03/14 07:28:33;;;;;;;48.67;46.20;;;11.60;99.90;;;;;;4916567;29;20552;-75
2022/03/14 07:30:58;;;;;;;42.83;40.63;;;12.00;99.90;;;;;;4917462;29;20270;-75
2022/03/14 07:33:25;;;;;;;6.03;5.73;;;12.20;99.90;;;;;;4917395;29;20635;-76
2022/03/14 07:35:51;;;;;;;5.37;5.17;;;12.30;99.90;;;;;;4915959;29;20565;-73
2022/03/14 07:38:17;;;;;;;4.73;4.50;;;12.20;99.90;;;;;;4907221;29;20184;-73
2022/03/14 07:40:44;;;;;;;4.40;4.00;;;12.30;99.90;;;;;;4905312;29;20191;-73
2022/03/14 07:43:10;;;;;;;4.23;3.90;;;12.40;99.90;;;;;;4901970;29;20195;-73
2022/03/14 07:45:36;;;;;;;5.37;5.07;;;12.30;99.90;;;;;;4899071;29;20224;-73
2022/03/14 07:48:02;;;;;;;6.80;6.30;;;12.50;99.90;;;;;;4897846;29;20704;-73
2022/03/14 07:50:28;;;;;;;7.60;7.13;;;12.60;99.90;;;;;;4899762;29;20225;-73
2022/03/14 07:52:55;;;;;;;3.93;3.80;;;12.70;99.90;;;;;;4904823;29;20183;-73
2022/03/14 07:55:21;;;;;;;4.53;4.23;;;12.30;99.90;;;;;;4904805;29;20263;-73
2022/03/14 07:57:47;;;;;;;5.13;4.83;;;11.60;99.90;;;;;;4897417;29;20780;-73
2022/03/14 08:00:16;;;;;;;3.77;3.67;;;11.00;99.90;;;;;;4905673;29;20192;-74
2022/03/14 08:02:43;;;;;;;3.70;3.60;;;11.00;99.90;;;;;;4905488;29;20551;-73
2022/03/14 08:05:10;;;;;;;4.50;4.13;;;11.30;99.90;;;;;;4898443;29;20219;-73
2022/03/14 08:07:37;;;;;;;5.00;4.80;;;11.60;99.90;;;;;;4906686;29;20224;-73
2022/03/14 08:10:09;;;;;;;5.20;4.90;;;11.70;99.90;;;;;;4916213;29;20211;-73
2022/03/14 08:12:50;;;;;;;5.03;4.83;;;11.40;99.90;;;;;;4916560;29;20194;-73
2022/03/14 08:15:26;;;;;;;6.83;6.53;;;10.80;99.90;;;;;;4917147;29;20831;-73
2022/03/14 08:17:56;;;;;;;5.50;5.30;;;10.80;99.90;;;;;;4915500;29;20237;-73
2022/03/14 08:20:23;;;;;;;3.80;3.60;;;11.30;99.90;;;;;;4917076;29;20265;-72
2022/03/14 08:22:52;;;;;;;3.70;3.53;;;11.90;99.90;;;;;;4909375;29;20180;-73
2022/03/14 08:25:20;;;;;;;4.63;4.43;;;12.20;99.90;;;;;;4898792;29;20228;-77
2022/03/14 08:27:46;;;;;;;4.00;3.90;;;12.20;99.90;;;;;;4902143;29;20258;-73
2022/03/14 08:30:12;;;;;;;4.33;4.13;;;12.40;99.90;;;;;;4948248;29;20258;-74
2022/03/14 08:32:41;;;;;;;4.67;4.37;;;12.30;99.90;;;;;;4932468;29;20306;-73
2022/03/14 08:35:09;;;;;;;5.00;4.60;;;12.20;99.90;;;;;;4917278;29;20691;-73
2022/03/14 08:37:40;;;;;;;7.47;7.10;;;12.20;99.90;;;;;;4916905;29;20187;-73
2022/03/14 08:40:09;;;;;;;9.37;8.90;;;12.10;99.90;;;;;;4917316;29;20191;-72
2022/03/14 08:42:36;;;;;;;8.60;8.13;;;11.70;99.90;;;;;;4910188;29;20834;-73
2022/03/14 08:45:02;;;;;;;9.97;9.17;;;11.50;99.90;;;;;;4896710;29;20223;-74
2022/03/14 08:47:28;;;;;;;3.87;3.50;;;11.60;99.90;;;;;;4897698;29;20184;-74
2022/03/14 08:49:54;;;;;;;4.40;4.10;;;12.00;99.90;;;;;;4897888;29;20188;-73
2022/03/14 08:52:20;;;;;;;8.00;7.63;;;12.60;99.90;;;;;;4899832;29;20659;-73
2022/03/14 08:54:46;;;;;;;5.40;5.10;;;13.60;99.90;;;;;;4913199;29;20554;-74
2022/03/14 08:57:12;;;;;;;5.67;5.37;;;13.90;99.90;;;;;;4910159;29;20187;-73
2022/03/14 08:59:38;;;;;;;5.70;5.30;;;13.90;99.90;;;;;;4915033;29;20648;-73
2022/03/14 09:02:04;;;;;;;3.67;3.57;;;13.80;99.90;;;;;;4922350;29;20552;-73
2022/03/14 09:04:30;;;;;;;4.90;4.70;;;13.10;99.90;;;;;;4925436;29;20217;-73
2022/03/14 09:06:55;;;;;;;4.60;4.30;;;12.40;99.90;;;;;;4919825;29;20448;-73
2022/03/14 09:09:21;;;;;;;5.30;4.90;;;12.00;99.90;;;;;;4918946;29;20682;-73
2022/03/14 09:11:47;;;;;;;7.27;6.97;;;11.50;99.90;;;;;;4935179;29;20187;-73
2022/03/14 09:14:13;;;;;;;7.00;6.60;;;11.30;99.90;;;;;;4916287;29;20564;-73
2022/03/14 09:16:39;;;;;;;6.53;6.23;;;11.20;99.90;;;;;;4916435;29;20230;-73
2022/03/14 09:19:05;;;;;;;5.83;5.50;;;11.10;99.90;;;;;;4914462;29;20191;-73
2022/03/14 09:21:32;;;;;;;5.07;4.57;;;11.10;99.90;;;;;;4916124;29;20735;-73
2022/03/14 09:23:58;;;;;;;4.40;4.03;;;11.10;99.90;;;;;;4914250;29;20270;-72
2022/03/14 09:26:24;;;;;;;5.63;5.13;;;11.30;99.90;;;;;;4915312;29;20203;-73
2022/03/14 09:28:50;;;;;;;5.97;5.67;;;11.40;99.90;;;;;;4914856;29;20527;-76
2022/03/14 09:31:16;;;;;;;5.70;5.40;;;11.50;99.90;;;;;;4910940;29;20266;-72
2022/03/14 09:33:43;;;;;;;6.17;5.60;;;11.70;99.90;;;;;;4903241;29;20215;-72
2022/03/14 09:36:09;;;;;;;6.13;5.63;;;11.90;99.90;;;;;;4915772;29;20761;-72
2022/03/14 09:38:35;;;;;;;6.07;5.77;;;11.80;99.90;;;;;;4914377;29;20199;-72
2022/03/14 09:41:03;;;;;;;5.00;4.60;;;11.70;99.90;;;;;;4914343;29;20231;-72
2022/03/14 09:43:31;;;;;;;4.80;4.40;;;11.40;99.90;;;;;;4904844;29;20672;-72
2022/03/14 09:45:58;;;;;;;4.40;4.00;;;11.30;99.90;;;;;;4901122;29;20238;-72
2022/03/14 09:48:25;;;;;;;4.87;3.97;;;11.20;99.90;;;;;;4915151;29;20281;-72
2022/03/14 09:50:52;;;;;;;5.57;4.10;;;11.30;99.90;;;;;;4915638;29;20172;-72
2022/03/14 09:53:18;;;;;;;4.47;4.07;;;11.30;99.90;;;;;;4914936;29;20184;-72
2022/03/14 09:55:46;;;;;;;4.07;3.80;;;11.50;99.90;;;;;;4914041;29;20203;-72
2022/03/14 09:58:17;;;;;;;4.93;4.60;;;11.60;99.90;;;;;;4913876;29;20183;-72
2022/03/14 10:00:43;;;;;;;4.03;3.67;;;11.90;99.90;;;;;;4914315;29;20193;-72
2022/03/14 10:03:09;;;;;;;4.03;3.77;;;11.80;99.90;;;;;;4907275;29;20198;-73
2022/03/14 10:05:35;;;;;;;4.00;3.70;;;11.60;99.90;;;;;;4929122;29;20226;-72
2022/03/14 10:08:01;;;;;;;6.90;4.40;;;11.30;99.90;;;;;;4929330;29;20663;-72
2022/03/14 10:10:28;;;;;;;7.77;4.23;;;11.40;99.90;;;;;;4921120;29;20187;-72
2022/03/14 10:12:55;;;;;;;4.17;3.77;;;11.90;99.90;;;;;;4926875;29;20552;-72
2022/03/14 10:15:22;;;;;;;5.40;4.30;;;11.80;99.90;;;;;;4945405;23;20601;-69
2022/03/14 10:17:49;;;;;;;4.13;3.70;;;12.30;99.90;;;;;;4951194;29;20186;-69
2022/03/14 10:20:15;;;;;;;4.03;3.70;;;13.20;99.90;;;;;;4953332;28;20225;-69
2022/03/14 10:22:42;;;;;;;5.53;4.30;;;13.90;99.90;;;;;;4953254;28;20209;-69
2022/03/14 10:25:13;;;;;;;8.30;4.70;;;14.40;99.90;;;;;;4952408;28;20595;-69
2022/03/14 10:27:45;;;;;;;6.17;5.67;;;14.90;99.90;;;;;;4951639;28;20186;-69
2022/03/14 10:30:26;;;;;;;6.17;5.73;;;15.10;98.40;;;;;;4953314;29;20181;-69
2022/03/14 10:33:08;;;;;;;4.30;4.00;;;15.60;97.60;;;;;;4953173;28;20185;-70
2022/03/14 10:35:38;;;;;;;4.10;3.47;;;15.50;95.40;;;;;;4952178;28;20212;-68
2022/03/14 10:38:06;;;;;;;4.30;3.83;;;15.20;94.90;;;;;;4952719;28;20192;-67
2022/03/14 10:40:37;;;;;;;3.83;3.43;;;15.20;94.10;;;;;;4953235;28;20177;-68
2022/03/14 10:43:26;;;;;;;8.10;3.37;;;15.60;94.50;;;;;;4953118;28;20189;-68
2022/03/14 10:45:56;;;;;;;5.50;3.90;;;16.00;94.50;;;;;;4937305;28;20244;-69
2022/03/14 10:48:34;;;;;;;3.93;3.53;;;16.90;91.70;;;;;;4940603;28;20182;-68
2022/03/14 10:51:11;;;;;;;4.13;3.70;;;17.30;90.90;;;;;;4934155;29;20201;-68
2022/03/14 10:53:42;;;;;;;3.60;3.30;;;16.90;85.60;;;;;;4935274;28;20205;-68
2022/03/14 10:56:09;;;;;;;4.80;3.30;;;16.40;86.30;;;;;;4943473;28;20229;-68
2022/03/14 10:58:35;;;;;;;4.93;3.80;;;16.60;89.60;;;;;;4932218;29;20205;-69
2022/03/14 11:01:06;;;;;;;5.77;3.87;;;16.30;90.00;;;;;;4938031;28;20619;-69
2022/03/14 11:03:33;;;;;;;3.97;3.63;;;16.30;88.80;;;;;;4952876;29;20685;-68
2022/03/14 11:06:02;;;;;;;3.73;3.43;;;16.00;88.30;;;;;;4954699;29;20644;-69
2022/03/14 11:08:34;;;;;;;3.57;3.37;;;16.00;86.80;;;;;;4949331;28;20194;-69
2022/03/14 11:11:06;;;;;;;4.70;3.43;;;15.70;88.10;;;;;;4947265;29;20178;-68
2022/03/14 11:13:37;;;;;;;4.33;4.03;;;15.80;90.00;;;;;;4950109;29;20184;-68
2022/03/14 11:16:02;;;;;;;3.80;3.53;;;16.40;89.00;;;;;;4950466;28;20739;-69
2022/03/14 11:18:29;;;;;;;5.83;4.70;;;16.90;85.20;;;;;;4950811;29;20185;-74
2022/03/14 11:20:59;;;;;;;5.13;4.37;;;16.90;83.10;;;;;;4951941;29;20193;-73
2022/03/14 11:23:26;;;;;;;4.20;3.87;;;17.00;84.70;;;;;;4950911;29;20225;-67
2022/03/14 11:25:52;;;;;;;6.33;5.50;;;17.70;84.80;;;;;;4933444;29;20218;-67
2022/03/14 11:28:20;;;;;;;4.90;4.43;;;18.80;81.20;;;;;;4950682;29;20193;-68
2022/03/14 11:31:07;;;;;;;4.30;4.00;;;19.60;71.90;;;;;;4951328;29;20239;-67
2022/03/14 11:33:35;;;;;;;5.13;4.83;;;19.40;69.30;;;;;;4951304;28;20268;-67
2022/03/14 11:36:02;;;;;;;5.70;5.43;;;19.10;69.10;;;;;;4941329;29;20705;-67
2022/03/14 11:38:29;;;;;;;12.47;11.70;;;19.30;67.90;;;;;;4945350;28;20198;-75
2022/03/14 11:40:56;;;;;;;8.00;7.60;;;18.80;65.20;;;;;;4953091;28;20185;-75
2022/03/14 11:43:23;;;;;;;11.40;10.70;;;19.10;68.00;;;;;;4953652;29;20190;-74
2022/03/14 11:45:50;;;;;;;11.90;11.13;;;20.00;67.00;;;;;;4953026;29;20228;-74
2022/03/14 11:48:17;;;;;;;13.23;12.48;;;20.20;66.10;;;;;;4955225;28;20195;-74
2022/03/14 11:50:47;;;;;;;12.88;11.82;;;20.10;64.30;;;;;;4952266;29;20244;-76
2022/03/14 11:53:24;;;;;;;13.10;12.13;;;19.20;65.40;;;;;;4955447;28;20313;-74
2022/03/14 11:55:55;;;;;;;12.27;11.55;;;19.50;64.60;;;;;;4953446;29;20214;-77
2022/03/14 11:58:37;;;;;;;10.88;10.07;;;19.40;62.40;;;;;;4955428;28;20226;-76
2022/03/14 12:01:22;;;;;;;11.02;9.98;;;19.60;62.40;;;;;;4953614;29;20255;-76
2022/03/14 12:04:05;;;;;;;9.70;9.10;;;20.10;59.70;;;;;;4956297;28;20669;-76
2022/03/14 12:06:58;;;;;;;5.25;4.80;;;20.30;59.70;;;;;;4934685;29;20272;-75
2022/03/14 12:09:26;;;;;;;10.53;9.73;;;19.10;60.50;;;;;;4931187;29;20195;-74
2022/03/14 12:12:05;;;;;;;12.03;11.43;;;18.00;63.80;;;;;;4954669;29;20306;-76
2022/03/14 12:14:44;;;;;;;11.93;11.23;;;18.70;65.00;;;;;;4955362;28;20776;-76
2022/03/14 12:17:13;;;;;;;13.23;12.43;;;18.80;62.60;;;;;;4954770;28;20199;-76
2022/03/14 12:19:54;;;;;;;11.80;11.20;;;18.90;64.10;;;;;;4952867;29;20213;-75
2022/03/14 12:22:41;;;;;;;11.50;10.70;;;18.40;64.00;;;;;;4954980;28;20673;-75
2022/03/14 12:25:12;;;;;;;12.37;11.27;;;18.00;66.70;;;;;;4953192;29;20228;-75
2022/03/14 12:27:40;;;;;;;8.50;8.00;;;18.50;64.50;;;;;;4954632;28;20277;-75
2022/03/14 12:30:07;;;;;;;6.57;6.20;;;20.60;57.60;;;;;;4947928;29;20269;-75
2022/03/14 12:32:52;;;;;;;4.45;4.10;;;21.70;54.20;;;;;;4937845;28;20220;-76
2022/03/14 12:35:19;;;;;;;3.60;3.42;;;21.90;51.40;;;;;;4954802;28;20237;-75
2022/03/14 12:38:09;;;;;;;4.40;4.10;;;21.60;52.80;;;;;;4942459;28;20187;-76
2022/03/14 12:40:35;;;;;;;7.57;6.87;;;19.30;56.30;;;;;;4934267;29;20269;-75
2022/03/14 12:43:07;;;;;;;8.87;7.50;;;17.80;58.80;;;;;;4950186;28;20626;-74
2022/03/14 12:45:59;;;;;;;10.87;10.13;;;17.40;62.10;;;;;;4954353;29;20221;-74
2022/03/14 12:48:30;;;;;;;7.43;6.87;;;19.20;59.30;;;;;;4953830;28;20277;-74
2022/03/14 12:50:57;;;;;;;5.40;4.90;;;20.00;58.00;;;;;;4952263;29;20287;-74
2022/03/14 12:53:27;;;;;;;4.63;4.25;;;21.00;54.40;;;;;;4954245;29;20188;-74
2022/03/14 12:55:54;;;;;;;4.20;3.88;;;20.40;54.80;;;;;;4953097;29;20233;-74
2022/03/14 12:58:22;;;;;;;3.58;3.33;;;19.80;55.30;;;;;;4953822;28;20218;-75
2022/03/14 13:00:49;;;;;;;3.92;3.50;;;20.40;54.90;;;;;;4942378;29;20253;-74
2022/03/14 13:03:20;;;;;;;5.20;3.80;;;21.40;52.90;;;;;;4935150;29;20205;-71
2022/03/14 13:05:47;;;;;;;4.13;3.53;;;21.40;51.50;;;;;;4934951;29;20222;-72
2022/03/14 13:08:13;;;;;;;3.78;3.40;;;20.90;56.10;;;;;;4934222;29;20190;-71
2022/03/14 13:10:44;;;;;;;3.97;3.60;;;22.20;53.60;;;;;;4943601;29;20220;-73
2022/03/14 13:13:13;;;;;;;4.82;3.58;;;22.40;52.50;;;;;;4952798;29;20181;-72
2022/03/14 13:15:41;;;;;;;4.15;3.85;;;20.90;52.90;;;;;;4954185;28;20583;-71
2022/03/14 13:18:22;;;;;;;4.38;4.07;;;19.80;54.90;;;;;;4946836;28;20190;-72
2022/03/14 13:20:48;;;;;;;4.28;3.45;;;19.40;56.90;;;;;;4950556;29;20197;-72
2022/03/14 13:23:20;;;;;;;3.83;3.42;;;20.10;56.60;;;;;;4953758;29;20233;-71
2022/03/14 13:25:47;;;;;;;4.53;4.13;;;21.10;53.50;;;;;;4954164;28;20635;-68
2022/03/14 13:28:26;;;;;;;4.17;3.93;;;20.70;53.90;;;;;;4952245;28;20264;-68
2022/03/14 13:30:54;;;;;;;3.90;3.60;;;19.30;55.50;;;;;;4953553;28;20248;-68
2022/03/14 13:33:28;;;;;;;3.63;3.35;;;19.90;57.60;;;;;;4946902;28;20186;-68
2022/03/14 13:35:57;;;;;;;3.92;3.10;;;21.50;54.20;;;;;;4951142;28;20208;-68
2022/03/14 13:38:36;;;;;;;4.57;3.58;;;22.50;50.80;;;;;;4939076;28;20686;-68
2022/03/14 13:41:07;;;;;;;4.72;4.43;;;21.90;51.90;;;;;;4950611;29;20189;-68
2022/03/14 13:43:35;;;;;;;5.60;4.53;;;22.50;50.40;;;;;;4953283;28;20186;-68
2022/03/14 13:46:24;;;;;;;5.85;5.53;;;22.90;49.90;;;;;;4952032;29;20217;-69
2022/03/14 13:48:55;;;;;;;7.00;6.50;;;23.00;48.60;;;;;;4952761;28;20666;-68
2022/03/14 13:51:26;;;;;;;6.60;6.18;;;22.00;50.10;;;;;;4937928;29;20182;-69
2022/03/14 13:53:52;;;;;;;6.82;6.32;;;22.60;49.70;;;;;;4933962;29;20281;-69
2022/03/14 13:56:19;;;;;;;5.05;4.78;;;22.90;49.50;;;;;;4933641;29;20214;-69
2022/03/14 13:58:54;;;;;;;7.70;7.40;;;22.60;49.60;;;;;;4948553;29;20197;-69
2022/03/14 14:01:38;;;;;;;6.07;5.68;;;21.80;51.40;;;;;;4951500;28;20193;-69
2022/03/14 14:04:14;;;;;;;4.22;3.90;;;21.00;53.90;;;;;;4947408;29;20194;-70
2022/03/14 14:06:44;;;;;;;7.97;3.53;;;19.20;55.70;;;;;;4936973;28;20581;-68
2022/03/14 14:09:25;;;;;;;4.67;4.17;;;17.70;59.70;;;;;;4937354;28;20188;-69
2022/03/14 14:12:05;;;;;;;8.43;7.17;;;17.10;62.60;;;;;;4933276;29;20182;-69
2022/03/14 14:14:34;;;;;;;6.27;6.03;;;17.50;62.00;;;;;;4933819;29;20182;-69
2022/03/14 14:17:20;;;;;;;7.97;7.33;;;17.20;62.00;;;;;;4943470;28;20229;-69
2022/03/14 14:20:19;;;;;;;15.07;13.40;;;17.20;62.70;;;;;;4952548;28;20193;-69
2022/03/14 14:22:59;;;;;;;7.53;6.80;;;16.60;64.10;;;;;;4920621;29;20646;-69
2022/03/14 14:25:28;;;;;;;5.93;5.33;;;16.10;65.90;;;;;;4952723;28;20210;-70
2022/03/14 14:28:06;;;;;;;8.00;5.83;;;16.40;65.10;;;;;;4952298;28;20181;-68
2022/03/14 14:30:43;;;;;;;6.63;6.13;;;17.10;63.00;;;;;;4950684;29;20177;-70
2022/03/14 14:33:14;;;;;;;9.27;7.97;;;17.70;61.30;;;;;;4952718;29;20532;-68
2022/03/14 14:35:51;;;;;;;10.63;9.53;;;18.30;59.40;;;;;;4951632;29;20210;-70
2022/03/14 14:38:21;;;;;;;8.77;8.13;;;18.80;59.70;;;;;;4952427;28;20181;-70
2022/03/14 14:40:49;;;;;;;7.67;7.20;;;18.80;58.90;;;;;;4948927;28;20781;-69
2022/03/14 14:43:17;;;;;;;7.90;7.30;;;18.50;59.20;;;;;;4951207;29;20280;-70
2022/03/14 14:45:45;;;;;;;5.60;5.03;;;18.60;59.00;;;;;;4952027;28;20705;-70
2022/03/14 14:48:12;;;;;;;6.37;5.97;;;18.80;57.40;;;;;;4934002;29;20182;-70
2022/03/14 14:50:40;;;;;;;5.57;5.10;;;19.00;58.00;;;;;;4932238;29;20179;-69
2022/03/14 14:53:10;;;;;;;5.17;4.77;;;19.80;56.50;;;;;;4933391;29;20186;-70
2022/03/14 14:55:37;;;;;;;5.00;4.67;;;20.10;55.60;;;;;;4933214;28;20214;-71
2022/03/14 14:58:02;;;;;;;7.28;6.47;;;20.50;54.70;;;;;;4952219;28;20722;-72
2022/03/14 15:00:28;;;;;;;6.53;5.70;;;20.00;56.30;;;;;;4951715;29;20197;-69
2022/03/14 15:02:55;;;;;;;6.05;5.40;;;19.60;56.50;;;;;;4952770;28;20185;-70
2022/03/14 15:05:21;;;;;;;8.83;6.87;;;19.70;57.30;;;;;;4952026;29;20228;-70
2022/03/14 15:07:47;;;;;;;5.23;4.67;;;20.10;55.20;;;;;;4951853;28;20189;-71
2022/03/14 15:10:14;;;;;;;7.00;5.60;;;20.10;55.80;;;;;;4951342;28;20182;-70
2022/03/14 15:12:42;;;;;;;5.33;4.90;;;20.10;55.20;;;;;;4952337;28;20212;-70
2022/03/14 15:15:10;;;;;;;10.27;5.07;;;19.70;55.80;;;;;;4954599;28;20221;-69
2022/03/14 15:17:36;;;;;;;7.27;6.57;;;18.50;57.90;;;;;;4955938;28;20193;-71
2022/03/14 15:20:07;;;;;;;7.63;6.60;;;17.80;58.30;;;;;;4954421;29;20190;-70
2022/03/14 15:22:34;;;;;;;16.57;13.60;;;17.20;60.10;;;;;;4955103;29;20212;-70
2022/03/14 15:25:04;;;;;;;10.23;9.47;;;16.60;63.40;;;;;;4956175;28;20213;-70
2022/03/14 15:27:30;;;;;;;9.60;8.03;;;16.20;63.50;;;;;;4954203;29;20247;-70
2022/03/14 15:29:56;;;;;;;5.43;4.93;;;16.00;64.80;;;;;;4955702;29;20645;-70
2022/03/14 15:32:22;;;;;;;4.17;3.60;;;15.90;66.30;;;;;;4952264;29;20209;-69
2022/03/14 15:34:50;;;;;;;3.93;3.70;;;15.90;65.60;;;;;;4945460;29;20647;-71
2022/03/14 15:37:17;;;;;;;4.53;4.20;;;15.80;66.40;;;;;;4940132;28;20577;-69
2022/03/14 15:39:44;;;;;;;3.90;3.70;;;16.00;66.70;;;;;;4952698;28;20189;-69
2022/03/14 15:42:14;;;;;;;7.20;5.00;;;15.80;66.80;;;;;;4945921;29;20838;-70
2022/03/14 15:44:41;;;;;;;9.90;7.17;;;15.90;66.60;;;;;;4954679;29;20685;-70
2022/03/14 15:47:08;;;;;;;6.93;6.13;;;16.10;66.50;;;;;;4955507;28;20178;-70
2022/03/14 15:49:34;;;;;;;4.50;4.10;;;15.80;67.60;;;;;;4961082;28;20236;-71
2022/03/14 15:52:01;;;;;;;8.17;6.00;;;15.70;68.00;;;;;;4942645;28;20209;-70
2022/03/14 15:54:27;;;;;;;8.20;6.83;;;15.50;67.80;;;;;;4936449;29;20195;-70
2022/03/14 15:56:54;;;;;;;9.83;7.50;;;15.60;68.40;;;;;;4935853;29;20210;-70
2022/03/14 15:59:24;;;;;;;6.17;5.20;;;15.70;67.20;;;;;;4947942;28;20193;-70
2022/03/14 16:01:50;;;;;;;4.80;4.40;;;16.00;66.20;;;;;;4950942;29;20185;-70
2022/03/14 16:04:16;;;;;;;5.20;4.90;;;16.00;67.10;;;;;;4955348;28;20272;-69
2022/03/14 16:06:44;;;;;;;7.30;4.97;;;15.90;69.00;;;;;;4955260;28;20812;-71
2022/03/14 16:09:11;;;;;;;4.50;4.13;;;16.40;67.90;;;;;;4953322;29;20192;-70
2022/03/14 16:11:40;;;;;;;3.50;3.20;;;17.10;65.90;;;;;;4951428;29;20190;-70
2022/03/14 16:14:07;;;;;;;3.83;3.50;;;17.80;64.10;;;;;;4955307;28;20273;-69
2022/03/14 16:16:34;;;;;;;3.40;3.20;;;18.00;61.90;;;;;;4981815;23;20281;-74
2022/03/14 16:19:02;;;;;;;6.90;3.47;;;18.00;61.00;;;;;;4958738;28;20225;-73
2022/03/14 16:21:28;;;;;;;4.00;3.67;;;18.10;61.50;;;;;;4955197;28;20182;-74
2022/03/14 16:23:54;;;;;;;6.77;3.90;;;18.00;61.10;;;;;;4962718;28;20209;-73
2022/03/14 16:26:20;;;;;;;12.70;4.27;;;18.00;62.20;;;;;;4961687;28;20230;-70
2022/03/14 16:28:46;;;;;;;4.63;4.20;;;18.10;62.10;;;;;;4936110;29;20201;-71
2022/03/14 16:31:12;;;;;;;4.70;4.23;;;18.30;60.80;;;;;;4936504;29;20556;-70
2022/03/14 16:33:38;;;;;;;4.90;4.60;;;18.40;60.10;;;;;;4936913;29;20226;-78
2022/03/14 16:36:04;;;;;;;5.33;4.40;;;17.90;60.50;;;;;;4938311;29;20312;-75
2022/03/14 16:38:30;;;;;;;4.10;3.80;;;17.30;62.20;;;;;;4955172;29;20196;-76
2022/03/14 16:40:57;;;;;;;3.73;3.37;;;16.50;64.20;;;;;;4954404;28;20669;-76
2022/03/14 16:43:23;;;;;;;3.67;3.37;;;15.60;66.40;;;;;;4954317;28;20189;-76
2022/03/14 16:45:50;;;;;;;4.53;4.13;;;14.90;69.70;;;;;;4954932;28;20300;-73
2022/03/14 16:48:16;;;;;;;5.13;4.90;;;14.30;71.40;;;;;;4935700;29;20341;-76
2022/03/14 16:50:42;;;;;;;6.17;5.67;;;14.10;73.40;;;;;;4947477;29;20190;-73